Windom, MN

8:29 AM CST on December 12, 2017 (GMT -0600)
Windom Municipal

Weather History for KMWM - November, 2014

Change the Weather History Date:

Saturday, November 29, 2014

  Actual Average Record
Temperature  
Mean Temperature 34 °F -  
Max Temperature 50 °F 34 °F 62 °F (1973)
Min Temperature 17 °F 16 °F -8 °F (1964)
Degree Days  
Heating Degree Days 32    
Moisture  
Dew Point 24 °F    
Average Humidity 85    
Maximum Humidity 100    
Minimum Humidity 57    
Precipitation  
Precipitation 0.01 in - - ()
Sea Level Pressure  
Sea Level Pressure 29.50 in    
Wind  
Wind Speed 7 mph (West)    
Max Wind Speed 25 mph    
Max Gust Speed 33 mph    
Visibility 8 miles    
Events Snow    
Averages and records for this station are not official NWS values.
T = Trace of Precipitation, MM = Missing Value Source: NWS Daily Summary

Daily Weather History Graph

Daily Weather History Graph

Search for Another Location

Airport or City:

Trip Planner

Search our weather history database for the weather conditions in past years. The results will help you decide how hot, cold, wet, or windy it might be!

Date:

Astronomy

Nov. 29, 2014 Rise Set
Actual Time 7:32 AM CST 4:44 PM CST
Civil Twilight 7:00 AM CST 5:16 PM CST
Nautical Twilight 6:24 AM CST 5:52 PM CST
Astronomical Twilight 5:49 AM CST 6:27 PM CST
Moon 12:53 PM CST (11/29) No Moon Set
Length of Visible Light 10h 16m
Length of Day
9h 12m
First Quarter, 54% of the Moon is Illuminated
Nov 29
First Quarter
Dec 6
Full
Dec 14
Last Quarter
Dec 21
New
Dec 28
First Quarter

Hourly Weather History & Observations

Time (CST) Temp. Windchill Dew Point Humidity Pressure Visibility Wind Dir Wind Speed Gust Speed Precip Events Conditions
12:14 AM 19.4 °F - 17.6 °F 93% 29.58 in 5.0 mi Calm Calm - N/A   Clear
12:33 AM 19.4 °F 11.5 °F 19.4 °F 100% 29.56 in 5.0 mi SE 5.8 mph - N/A   Clear
12:53 AM 21.2 °F 16.4 °F 19.4 °F 93% 29.55 in 5.0 mi SE 3.5 mph - N/A   Clear
1:14 AM 21.2 °F 10.9 °F 21.2 °F 100% 29.54 in 5.0 mi SSE 9.2 mph - N/A   Clear
1:33 AM 21.2 °F 10.1 °F 21.2 °F 100% 29.53 in 5.0 mi SSE 10.4 mph - N/A   Clear
1:53 AM 21.2 °F 10.9 °F 21.2 °F 100% 29.53 in 5.0 mi SSE 9.2 mph - N/A   Clear
2:13 AM 21.2 °F 11.7 °F 21.2 °F 100% 29.53 in 5.0 mi SSE 8.1 mph - N/A   Clear
2:33 AM 21.2 °F 14.9 °F 19.4 °F 93% 29.52 in 5.0 mi SSE 4.6 mph - N/A   Clear
2:53 AM 21.2 °F 14.9 °F 19.4 °F 93% 29.52 in 5.0 mi South 4.6 mph - N/A   Clear
3:13 AM 21.2 °F - 19.4 °F 93% 29.50 in 5.0 mi Calm Calm - N/A   Clear
3:34 AM 21.2 °F - 21.2 °F 100% 29.49 in 5.0 mi Calm Calm - N/A   Clear
3:53 AM 21.2 °F - 21.2 °F 100% 29.47 in 5.0 mi Calm Calm - N/A   Clear
4:13 AM 19.4 °F - 19.4 °F 100% 29.46 in 5.0 mi Calm Calm - N/A   Clear
4:34 AM 21.2 °F - 21.2 °F 100% 29.46 in 5.0 mi Calm Calm - N/A   Clear
4:53 AM 21.2 °F - 21.2 °F 100% 29.45 in 5.0 mi Calm Calm - N/A   Clear
5:13 AM 21.2 °F - 21.2 °F 100% 29.45 in 7.0 mi Calm Calm - N/A   Clear
5:34 AM 21.2 °F - 19.4 °F 93% 29.44 in 5.0 mi Calm Calm - N/A   Clear
5:53 AM 21.2 °F - 19.4 °F 93% 29.44 in 5.0 mi Calm Calm - N/A   Clear
6:13 AM 21.2 °F - 19.4 °F 93% 29.43 in 7.0 mi Calm Calm - N/A   Clear
6:34 AM 19.4 °F - 17.6 °F 93% 29.43 in 5.0 mi Calm Calm - N/A   Clear
6:53 AM 17.6 °F - 17.6 °F 100% 29.42 in 5.0 mi Calm Calm - N/A   Clear
7:13 AM 19.4 °F 12.8 °F 19.4 °F 100% 29.42 in 5.0 mi SSW 4.6 mph - N/A   Clear
7:34 AM 21.2 °F 10.1 °F 21.2 °F 100% 29.42 in 7.0 mi SSW 10.4 mph - N/A   Clear
7:53 AM 24.8 °F 16.1 °F 23.0 °F 93% 29.42 in 7.0 mi SSW 8.1 mph - N/A   Clear
8:13 AM 24.8 °F 16.1 °F 23.0 °F 93% 29.41 in 10.0 mi SSW 8.1 mph - N/A   Clear
8:34 AM 26.6 °F 19.1 °F 24.8 °F 93% 29.41 in 10.0 mi South 6.9 mph - N/A   Clear
8:53 AM 28.4 °F 22.2 °F 24.8 °F 86% 29.41 in 10.0 mi SSW 5.8 mph - N/A   Clear
9:13 AM 30.2 °F 24.3 °F 26.6 °F 86% 29.41 in 10.0 mi SSW 5.8 mph - N/A   Clear
9:33 AM 33.8 °F 28.6 °F 26.6 °F 75% 29.40 in 10.0 mi SSW 5.8 mph - N/A   Clear
9:53 AM 33.8 °F 28.6 °F 28.4 °F 81% 29.40 in 10.0 mi SSW 5.8 mph - N/A   Clear
10:13 AM 37.4 °F 30.8 °F 28.4 °F 70% 29.41 in 10.0 mi SSW 9.2 mph - 0.01 in   Clear
10:33 AM 39.2 °F 34.2 °F 28.4 °F 65% 29.41 in 10.0 mi SSW 6.9 mph - 0.01 in   Clear
10:54 AM 41.0 °F 35.8 °F 30.2 °F 65% 29.39 in 10.0 mi SSW 8.1 mph - 0.01 in   Clear
11:13 AM 42.8 °F 35.8 °F 30.2 °F 61% 29.39 in 10.0 mi SW 13.8 mph - N/A   Clear
11:33 AM 42.8 °F 36.2 °F 30.2 °F 61% 29.39 in 10.0 mi SW 12.7 mph 17.3 mph N/A   Clear
11:54 AM 44.6 °F 39.7 °F 30.2 °F 57% 29.39 in 10.0 mi SW 9.2 mph - N/A   Clear
12:13 PM 44.6 °F 39.2 °F 32.0 °F 61% 29.39 in 10.0 mi SW 10.4 mph - N/A   Clear
12:34 PM 46.4 °F 41.9 °F 33.8 °F 62% 29.38 in 10.0 mi WSW 9.2 mph - N/A   Clear
12:53 PM 48.2 °F - 33.8 °F 58% 29.39 in 10.0 mi West 12.7 mph - N/A   Clear
1:13 PM 48.2 °F - 35.6 °F 62% 29.41 in 10.0 mi Calm Calm - N/A   Clear
1:34 PM 48.2 °F - 35.6 °F 62% 29.40 in 10.0 mi WNW 4.6 mph - N/A   Clear
1:53 PM 50.0 °F - 35.6 °F 58% 29.41 in 10.0 mi WNW 3.5 mph - N/A   Clear
2:13 PM 48.2 °F - 33.8 °F 58% 29.41 in 10.0 mi NW 12.7 mph - N/A   Clear
2:33 PM 44.6 °F 38.8 °F 33.8 °F 66% 29.43 in 10.0 mi NW 11.5 mph - N/A   Clear
2:53 PM 42.8 °F 36.6 °F 32.0 °F 66% 29.43 in 10.0 mi NNW 11.5 mph - N/A   Clear
3:13 PM 39.2 °F 33.0 °F 30.2 °F 70% 29.44 in 10.0 mi NW 9.2 mph - N/A   Clear
3:33 PM 39.2 °F 33.0 °F 30.2 °F 70% 29.45 in 10.0 mi NNW 9.2 mph - N/A   Clear
3:53 PM 37.4 °F 31.4 °F 30.2 °F 75% 29.47 in 10.0 mi NW 8.1 mph - N/A   Clear
4:14 PM 35.6 °F 30.7 °F 30.2 °F 81% 29.47 in 10.0 mi NW 5.8 mph - N/A   Clear
4:33 PM 33.8 °F - 30.2 °F 87% 29.48 in 10.0 mi Calm Calm - N/A   Clear
4:53 PM 32.0 °F 24.8 °F 28.4 °F 87% 29.48 in 10.0 mi NNW 8.1 mph - N/A   Clear
5:14 PM 32.0 °F 26.4 °F 28.4 °F 87% 29.49 in 10.0 mi NNW 5.8 mph - N/A   Clear
5:33 PM 30.2 °F 18.9 °F 28.4 °F 93% 29.52 in 10.0 mi NW 16.1 mph - N/A   Clear
5:53 PM 28.4 °F 15.8 °F 26.6 °F 93% 29.55 in 10.0 mi NW 18.4 mph 23.0 mph N/A   Clear
6:14 PM 26.6 °F 13.8 °F 24.8 °F 93% 29.54 in 7.0 mi NNW 17.3 mph 25.3 mph N/A   Scattered Clouds
6:33 PM 26.6 °F 12.7 °F 24.8 °F 93% 29.53 in 10.0 mi NNW 20.7 mph 25.3 mph N/A   Scattered Clouds
6:53 PM 24.8 °F 11.1 °F 23.0 °F 93% 29.55 in 7.0 mi NW 18.4 mph 25.3 mph N/A   Mostly Cloudy
7:13 PM 24.8 °F 11.5 °F 23.0 °F 93% 29.58 in 7.0 mi NW 17.3 mph 25.3 mph N/A   Overcast
7:34 PM 24.8 °F 11.1 °F 21.2 °F 86% 29.60 in 7.0 mi NW 18.4 mph - N/A   Overcast
7:53 PM 24.8 °F 11.1 °F 21.2 °F 86% 29.62 in 7.0 mi NW 18.4 mph 24.2 mph N/A   Overcast
8:13 PM 24.8 °F 9.6 °F 21.2 °F 86% 29.62 in 5.0 mi NW 23.0 mph 27.6 mph N/A   Overcast
8:34 PM 24.8 °F 9.6 °F 21.2 °F 86% 29.62 in 7.0 mi NW 23.0 mph 31.1 mph N/A   Overcast
8:53 PM 23.0 °F 7.2 °F 21.2 °F 93% 29.63 in 7.0 mi NW 23.0 mph 31.1 mph N/A   Overcast
9:13 PM 23.0 °F 7.2 °F 19.4 °F 86% 29.63 in 10.0 mi NW 23.0 mph 32.2 mph N/A   Overcast
9:34 PM 21.2 °F 4.5 °F 19.4 °F 93% 29.64 in 10.0 mi NW 24.2 mph 29.9 mph N/A   Overcast
9:53 PM 21.2 °F 5.6 °F 17.6 °F 86% 29.67 in 10.0 mi NNW 20.7 mph - N/A   Overcast
10:13 PM 21.2 °F 4.2 °F 15.8 °F 80% 29.65 in 10.0 mi NNW 25.3 mph 33.4 mph N/A   Overcast
10:34 PM 21.2 °F 4.9 °F 17.6 °F 86% 29.67 in 10.0 mi NW 23.0 mph 32.2 mph N/A   Overcast
10:53 PM 21.2 °F 6.4 °F 17.6 °F 86% 29.72 in 10.0 mi NW 18.4 mph 24.2 mph N/A   Overcast
11:13 PM 19.4 °F 2.8 °F 17.6 °F 93% 29.72 in 10.0 mi NNW 21.9 mph 25.3 mph N/A   Overcast
11:34 PM 19.4 °F 2.1 °F 15.8 °F 86% 29.72 in 7.0 mi NW 24.2 mph 28.8 mph N/A Snow Light Snow
11:53 PM 17.6 °F -0.6 °F 14.0 °F 86% 29.74 in 10.0 mi NW 25.3 mph 33.4 mph N/A   Overcast